sensor_id;sensor_type;location;lat;lon;timestamp;P1;durP1;ratioP1;P2;durP2;ratioP2
13197;SDS011;6664;52.514;13.440;2023-08-07T00:02:30;1.80;;;1.70;;
13197;SDS011;6664;52.514;13.440;2023-08-07T00:05:17;1.43;;;1.33;;
13197;SDS011;6664;52.514;13.440;2023-08-07T00:08:03;3.43;;;1.90;;
13197;SDS011;6664;52.514;13.440;2023-08-07T00:10:49;1.73;;;1.63;;
13197;SDS011;6664;52.514;13.440;2023-08-07T00:13:35;2.30;;;1.80;;
13197;SDS011;6664;52.514;13.440;2023-08-07T00:16:21;2.30;;;1.33;;
13197;SDS011;6664;52.514;13.440;2023-08-07T00:19:09;1.97;;;1.80;;
13197;SDS011;6664;52.514;13.440;2023-08-07T00:21:57;2.07;;;1.87;;
13197;SDS011;6664;52.514;13.440;2023-08-07T00:24:43;1.90;;;1.80;;
13197;SDS011;6664;52.514;13.440;2023-08-07T00:27:28;2.53;;;2.00;;
13197;SDS011;6664;52.514;13.440;2023-08-07T00:30:14;2.67;;;1.80;;
13197;SDS011;6664;52.514;13.440;2023-08-07T00:33:00;1.70;;;1.60;;
13197;SDS011;6664;52.514;13.440;2023-08-07T00:35:46;2.10;;;1.90;;
13197;SDS011;6664;52.514;13.440;2023-08-07T00:38:32;2.10;;;2.00;;
13197;SDS011;6664;52.514;13.440;2023-08-07T00:41:19;2.83;;;2.53;;
13197;SDS011;6664;52.514;13.440;2023-08-07T00:44:05;2.20;;;2.00;;
13197;SDS011;6664;52.514;13.440;2023-08-07T00:46:51;2.57;;;2.37;;
13197;SDS011;6664;52.514;13.440;2023-08-07T00:49:40;3.53;;;2.53;;
13197;SDS011;6664;52.514;13.440;2023-08-07T00:52:27;1.77;;;1.67;;
13197;SDS011;6664;52.514;13.440;2023-08-07T00:55:12;7.20;;;2.07;;
13197;SDS011;6664;52.514;13.440;2023-08-07T00:58:00;5.60;;;1.90;;
13197;SDS011;6664;52.514;13.440;2023-08-07T01:00:45;4.80;;;1.87;;
13197;SDS011;6664;52.514;13.440;2023-08-07T01:03:31;2.30;;;2.10;;
13197;SDS011;6664;52.514;13.440;2023-08-07T01:06:17;2.40;;;2.20;;
13197;SDS011;6664;52.514;13.440;2023-08-07T01:09:03;1.87;;;1.77;;
13197;SDS011;6664;52.514;13.440;2023-08-07T01:11:55;1.93;;;1.83;;
13197;SDS011;6664;52.514;13.440;2023-08-07T01:17:48;2.40;;;2.00;;
13197;SDS011;6664;52.514;13.440;2023-08-07T01:20:36;2.03;;;1.83;;
13197;SDS011;6664;52.514;13.440;2023-08-07T01:23:22;2.00;;;1.90;;
13197;SDS011;6664;52.514;13.440;2023-08-07T01:26:07;3.80;;;2.00;;
13197;SDS011;6664;52.514;13.440;2023-08-07T01:29:06;2.20;;;2.10;;
13197;SDS011;6664;52.514;13.440;2023-08-07T01:31:59;1.53;;;1.40;;
13197;SDS011;6664;52.514;13.440;2023-08-07T01:34:47;7.13;;;1.70;;
13197;SDS011;6664;52.514;13.440;2023-08-07T01:37:39;2.30;;;2.10;;
13197;SDS011;6664;52.514;13.440;2023-08-07T01:40:26;3.20;;;2.07;;
13197;SDS011;6664;52.514;13.440;2023-08-07T01:43:13;3.00;;;1.83;;
13197;SDS011;6664;52.514;13.440;2023-08-07T01:45:58;1.80;;;1.70;;
13197;SDS011;6664;52.514;13.440;2023-08-07T01:48:45;6.20;;;1.93;;
13197;SDS011;6664;52.514;13.440;2023-08-07T01:51:31;3.87;;;2.27;;
13197;SDS011;6664;52.514;13.440;2023-08-07T01:54:17;2.60;;;2.03;;
13197;SDS011;6664;52.514;13.440;2023-08-07T01:57:02;6.30;;;2.10;;
13197;SDS011;6664;52.514;13.440;2023-08-07T01:59:49;2.30;;;2.13;;
13197;SDS011;6664;52.514;13.440;2023-08-07T02:02:37;2.17;;;1.97;;
13197;SDS011;6664;52.514;13.440;2023-08-07T02:05:23;2.57;;;2.27;;
13197;SDS011;6664;52.514;13.440;2023-08-07T02:08:10;5.73;;;2.23;;
13197;SDS011;6664;52.514;13.440;2023-08-07T02:10:56;2.17;;;1.97;;
13197;SDS011;6664;52.514;13.440;2023-08-07T02:13:42;2.23;;;2.13;;
13197;SDS011;6664;52.514;13.440;2023-08-07T02:16:27;2.23;;;2.10;;
13197;SDS011;6664;52.514;13.440;2023-08-07T02:19:15;3.23;;;2.03;;
13197;SDS011;6664;52.514;13.440;2023-08-07T02:22:01;2.23;;;2.10;;
13197;SDS011;6664;52.514;13.440;2023-08-07T02:24:47;5.90;;;2.60;;
13197;SDS011;6664;52.514;13.440;2023-08-07T02:27:32;3.73;;;2.20;;
13197;SDS011;6664;52.514;13.440;2023-08-07T02:30:18;3.83;;;2.40;;
13197;SDS011;6664;52.514;13.440;2023-08-07T02:33:03;3.10;;;2.90;;
13197;SDS011;6664;52.514;13.440;2023-08-07T02:35:49;4.97;;;2.60;;
13197;SDS011;6664;52.514;13.440;2023-08-07T02:38:39;2.93;;;2.60;;
13197;SDS011;6664;52.514;13.440;2023-08-07T02:41:25;8.07;;;2.80;;
13197;SDS011;6664;52.514;13.440;2023-08-07T02:44:12;3.20;;;2.60;;
13197;SDS011;6664;52.514;13.440;2023-08-07T02:46:58;5.40;;;2.90;;
13197;SDS011;6664;52.514;13.440;2023-08-07T02:49:43;6.40;;;3.00;;
13197;SDS011;6664;52.514;13.440;2023-08-07T02:52:31;3.30;;;2.57;;
13197;SDS011;6664;52.514;13.440;2023-08-07T02:55:16;3.30;;;2.90;;
13197;SDS011;6664;52.514;13.440;2023-08-07T02:58:02;6.00;;;3.27;;
13197;SDS011;6664;52.514;13.440;2023-08-07T03:00:48;2.67;;;2.47;;
13197;SDS011;6664;52.514;13.440;2023-08-07T03:03:33;4.30;;;2.80;;
13197;SDS011;6664;52.514;13.440;2023-08-07T03:06:19;6.23;;;3.20;;
13197;SDS011;6664;52.514;13.440;2023-08-07T03:09:04;3.30;;;2.80;;
13197;SDS011;6664;52.514;13.440;2023-08-07T03:11:50;3.23;;;2.93;;
13197;SDS011;6664;52.514;13.440;2023-08-07T03:14:37;4.10;;;3.60;;
13197;SDS011;6664;52.514;13.440;2023-08-07T03:17:23;4.83;;;2.80;;
13197;SDS011;6664;52.514;13.440;2023-08-07T03:20:08;4.00;;;2.77;;
13197;SDS011;6664;52.514;13.440;2023-08-07T03:22:56;3.50;;;3.20;;
13197;SDS011;6664;52.514;13.440;2023-08-07T03:25:42;6.33;;;2.80;;
13197;SDS011;6664;52.514;13.440;2023-08-07T03:28:28;4.27;;;3.30;;
13197;SDS011;6664;52.514;13.440;2023-08-07T03:31:14;5.47;;;3.30;;
13197;SDS011;6664;52.514;13.440;2023-08-07T03:34:00;4.00;;;3.20;;
13197;SDS011;6664;52.514;13.440;2023-08-07T03:36:45;2.87;;;2.60;;
13197;SDS011;6664;52.514;13.440;2023-08-07T03:39:31;3.17;;;2.87;;
13197;SDS011;6664;52.514;13.440;2023-08-07T03:42:19;3.10;;;2.80;;
13197;SDS011;6664;52.514;13.440;2023-08-07T03:45:04;10.00;;;3.37;;
13197;SDS011;6664;52.514;13.440;2023-08-07T03:47:50;4.00;;;3.47;;
13197;SDS011;6664;52.514;13.440;2023-08-07T03:50:38;3.93;;;3.50;;
13197;SDS011;6664;52.514;13.440;2023-08-07T03:53:24;4.57;;;3.13;;
13197;SDS011;6664;52.514;13.440;2023-08-07T03:56:10;5.10;;;4.07;;
13197;SDS011;6664;52.514;13.440;2023-08-07T03:58:55;4.90;;;3.17;;
13197;SDS011;6664;52.514;13.440;2023-08-07T04:01:44;4.03;;;3.10;;
13197;SDS011;6664;52.514;13.440;2023-08-07T04:04:29;6.60;;;3.20;;
13197;SDS011;6664;52.514;13.440;2023-08-07T04:07:15;4.50;;;3.50;;
13197;SDS011;6664;52.514;13.440;2023-08-07T04:10:00;4.37;;;3.57;;
13197;SDS011;6664;52.514;13.440;2023-08-07T04:12:48;3.90;;;3.50;;
13197;SDS011;6664;52.514;13.440;2023-08-07T04:15:37;3.50;;;3.20;;
13197;SDS011;6664;52.514;13.440;2023-08-07T04:18:22;3.30;;;3.00;;
13197;SDS011;6664;52.514;13.440;2023-08-07T04:21:08;3.73;;;3.20;;
13197;SDS011;6664;52.514;13.440;2023-08-07T04:23:53;7.27;;;3.20;;
13197;SDS011;6664;52.514;13.440;2023-08-07T04:26:39;4.20;;;3.80;;
13197;SDS011;6664;52.514;13.440;2023-08-07T04:29:24;6.40;;;2.80;;
13197;SDS011;6664;52.514;13.440;2023-08-07T04:32:13;3.27;;;2.83;;
13197;SDS011;6664;52.514;13.440;2023-08-07T04:34:58;4.10;;;3.43;;
13197;SDS011;6664;52.514;13.440;2023-08-07T04:37:44;4.27;;;2.90;;
13197;SDS011;6664;52.514;13.440;2023-08-07T04:40:29;4.17;;;3.00;;
13197;SDS011;6664;52.514;13.440;2023-08-07T04:43:15;2.60;;;2.40;;
13197;SDS011;6664;52.514;13.440;2023-08-07T04:46:01;12.07;;;2.97;;
13197;SDS011;6664;52.514;13.440;2023-08-07T04:48:50;3.50;;;3.00;;
13197;SDS011;6664;52.514;13.440;2023-08-07T04:51:35;3.73;;;3.00;;
13197;SDS011;6664;52.514;13.440;2023-08-07T04:54:23;4.10;;;2.37;;
13197;SDS011;6664;52.514;13.440;2023-08-07T04:57:11;4.23;;;2.70;;
13197;SDS011;6664;52.514;13.440;2023-08-07T04:59:57;3.60;;;3.30;;
13197;SDS011;6664;52.514;13.440;2023-08-07T05:02:42;7.83;;;3.10;;
13197;SDS011;6664;52.514;13.440;2023-08-07T05:05:28;2.47;;;2.27;;
13197;SDS011;6664;52.514;13.440;2023-08-07T05:08:16;6.83;;;2.80;;
13197;SDS011;6664;52.514;13.440;2023-08-07T05:11:02;3.40;;;2.73;;
13197;SDS011;6664;52.514;13.440;2023-08-07T05:13:47;2.50;;;2.30;;
13197;SDS011;6664;52.514;13.440;2023-08-07T05:16:33;6.77;;;2.87;;
13197;SDS011;6664;52.514;13.440;2023-08-07T05:19:19;4.10;;;2.77;;
13197;SDS011;6664;52.514;13.440;2023-08-07T05:22:07;7.10;;;2.73;;
13197;SDS011;6664;52.514;13.440;2023-08-07T05:24:52;3.17;;;2.80;;
13197;SDS011;6664;52.514;13.440;2023-08-07T05:27:38;4.00;;;2.80;;
13197;SDS011;6664;52.514;13.440;2023-08-07T05:30:25;2.33;;;2.13;;
13197;SDS011;6664;52.514;13.440;2023-08-07T05:33:11;3.10;;;2.83;;
13197;SDS011;6664;52.514;13.440;2023-08-07T05:35:59;2.40;;;2.20;;
13197;SDS011;6664;52.514;13.440;2023-08-07T05:38:45;2.33;;;2.13;;
13197;SDS011;6664;52.514;13.440;2023-08-07T05:41:30;2.77;;;2.40;;
13197;SDS011;6664;52.514;13.440;2023-08-07T05:44:20;2.40;;;2.20;;
13197;SDS011;6664;52.514;13.440;2023-08-07T05:47:06;2.87;;;2.57;;
13197;SDS011;6664;52.514;13.440;2023-08-07T05:49:54;3.77;;;2.67;;
13197;SDS011;6664;52.514;13.440;2023-08-07T05:52:40;5.77;;;2.50;;
13197;SDS011;6664;52.514;13.440;2023-08-07T05:55:26;2.53;;;2.33;;
13197;SDS011;6664;52.514;13.440;2023-08-07T05:58:11;4.60;;;2.60;;
13197;SDS011;6664;52.514;13.440;2023-08-07T06:00:59;6.03;;;2.70;;
13197;SDS011;6664;52.514;13.440;2023-08-07T06:03:47;12.33;;;1.97;;
13197;SDS011;6664;52.514;13.440;2023-08-07T06:06:33;2.87;;;2.20;;
13197;SDS011;6664;52.514;13.440;2023-08-07T06:09:20;4.10;;;2.37;;
13197;SDS011;6664;52.514;13.440;2023-08-07T06:12:07;5.87;;;2.43;;
13197;SDS011;6664;52.514;13.440;2023-08-07T06:14:53;3.33;;;2.10;;
13197;SDS011;6664;52.514;13.440;2023-08-07T06:17:39;2.23;;;1.97;;
13197;SDS011;6664;52.514;13.440;2023-08-07T06:20:24;3.47;;;1.90;;
13197;SDS011;6664;52.514;13.440;2023-08-07T06:23:10;2.33;;;2.07;;
13197;SDS011;6664;52.514;13.440;2023-08-07T06:25:58;1.70;;;1.60;;
13197;SDS011;6664;52.514;13.440;2023-08-07T06:28:48;4.67;;;2.33;;
13197;SDS011;6664;52.514;13.440;2023-08-07T06:31:34;2.17;;;1.97;;
13197;SDS011;6664;52.514;13.440;2023-08-07T06:34:21;4.23;;;2.23;;
13197;SDS011;6664;52.514;13.440;2023-08-07T06:37:07;1.70;;;1.60;;
13197;SDS011;6664;52.514;13.440;2023-08-07T06:39:52;3.13;;;1.90;;
13197;SDS011;6664;52.514;13.440;2023-08-07T06:42:37;1.60;;;1.50;;
13197;SDS011;6664;52.514;13.440;2023-08-07T06:45:23;2.20;;;2.03;;
13197;SDS011;6664;52.514;13.440;2023-08-07T06:48:08;2.90;;;1.50;;
13197;SDS011;6664;52.514;13.440;2023-08-07T06:50:54;2.20;;;1.93;;
13197;SDS011;6664;52.514;13.440;2023-08-07T06:53:42;1.50;;;1.40;;
13197;SDS011;6664;52.514;13.440;2023-08-07T06:56:28;2.03;;;1.27;;
13197;SDS011;6664;52.514;13.440;2023-08-07T06:59:16;1.80;;;1.70;;
13197;SDS011;6664;52.514;13.440;2023-08-07T07:02:01;6.63;;;1.80;;
13197;SDS011;6664;52.514;13.440;2023-08-07T07:04:48;1.70;;;1.60;;
13197;SDS011;6664;52.514;13.440;2023-08-07T07:07:36;2.30;;;1.63;;
13197;SDS011;6664;52.514;13.440;2023-08-07T07:10:24;2.73;;;1.33;;
13197;SDS011;6664;52.514;13.440;2023-08-07T07:13:10;2.17;;;1.30;;
13197;SDS011;6664;52.514;13.440;2023-08-07T07:15:57;2.20;;;1.47;;
13197;SDS011;6664;52.514;13.440;2023-08-07T07:18:43;3.50;;;1.67;;
13197;SDS011;6664;52.514;13.440;2023-08-07T07:21:30;2.57;;;2.47;;
13197;SDS011;6664;52.514;13.440;2023-08-07T07:24:16;5.67;;;1.47;;
13197;SDS011;6664;52.514;13.440;2023-08-07T07:27:06;1.17;;;1.10;;
13197;SDS011;6664;52.514;13.440;2023-08-07T07:29:52;4.13;;;1.70;;
13197;SDS011;6664;52.514;13.440;2023-08-07T07:32:37;1.30;;;1.20;;
13197;SDS011;6664;52.514;13.440;2023-08-07T07:35:23;5.43;;;1.40;;
13197;SDS011;6664;52.514;13.440;2023-08-07T07:38:09;1.70;;;1.60;;
13197;SDS011;6664;52.514;13.440;2023-08-07T07:40:55;1.57;;;1.33;;
13197;SDS011;6664;52.514;13.440;2023-08-07T07:43:41;1.80;;;1.20;;
13197;SDS011;6664;52.514;13.440;2023-08-07T07:46:30;1.13;;;1.13;;
13197;SDS011;6664;52.514;13.440;2023-08-07T07:49:17;1.77;;;1.00;;
13197;SDS011;6664;52.514;13.440;2023-08-07T07:52:05;2.57;;;1.60;;
13197;SDS011;6664;52.514;13.440;2023-08-07T07:54:52;0.90;;;0.90;;
13197;SDS011;6664;52.514;13.440;2023-08-07T07:57:38;2.00;;;1.20;;
13197;SDS011;6664;52.514;13.440;2023-08-07T08:00:23;1.17;;;1.10;;
13197;SDS011;6664;52.514;13.440;2023-08-07T08:03:12;1.10;;;1.00;;
13197;SDS011;6664;52.514;13.440;2023-08-07T08:05:58;2.40;;;1.10;;
13197;SDS011;6664;52.514;13.440;2023-08-07T08:08:43;2.10;;;1.47;;
13197;SDS011;6664;52.514;13.440;2023-08-07T08:11:29;1.30;;;1.20;;
13197;SDS011;6664;52.514;13.440;2023-08-07T08:14:17;1.57;;;1.30;;
13197;SDS011;6664;52.514;13.440;2023-08-07T08:17:05;1.30;;;1.20;;
13197;SDS011;6664;52.514;13.440;2023-08-07T08:19:52;1.53;;;1.40;;
13197;SDS011;6664;52.514;13.440;2023-08-07T08:22:39;2.47;;;1.20;;
13197;SDS011;6664;52.514;13.440;2023-08-07T08:25:27;5.00;;;1.33;;
13197;SDS011;6664;52.514;13.440;2023-08-07T08:28:12;1.47;;;1.27;;
13197;SDS011;6664;52.514;13.440;2023-08-07T08:31:00;3.23;;;1.67;;
13197;SDS011;6664;52.514;13.440;2023-08-07T08:33:48;1.80;;;1.00;;
13197;SDS011;6664;52.514;13.440;2023-08-07T08:36:36;3.33;;;1.40;;
13197;SDS011;6664;52.514;13.440;2023-08-07T08:39:24;2.30;;;1.43;;
13197;SDS011;6664;52.514;13.440;2023-08-07T08:42:10;3.13;;;1.20;;
13197;SDS011;6664;52.514;13.440;2023-08-07T08:44:59;3.47;;;1.80;;
13197;SDS011;6664;52.514;13.440;2023-08-07T08:47:45;2.47;;;1.50;;
13197;SDS011;6664;52.514;13.440;2023-08-07T08:50:34;1.20;;;1.10;;
13197;SDS011;6664;52.514;13.440;2023-08-07T08:53:25;1.53;;;1.40;;
13197;SDS011;6664;52.514;13.440;2023-08-07T08:56:13;1.40;;;1.33;;
13197;SDS011;6664;52.514;13.440;2023-08-07T08:58:59;1.73;;;1.63;;
13197;SDS011;6664;52.514;13.440;2023-08-07T09:01:48;3.23;;;2.03;;
13197;SDS011;6664;52.514;13.440;2023-08-07T09:04:36;1.73;;;1.60;;
13197;SDS011;6664;52.514;13.440;2023-08-07T09:07:22;1.57;;;1.47;;
13197;SDS011;6664;52.514;13.440;2023-08-07T09:10:11;5.20;;;1.20;;
13197;SDS011;6664;52.514;13.440;2023-08-07T09:13:00;2.13;;;1.40;;
13197;SDS011;6664;52.514;13.440;2023-08-07T09:15:48;2.17;;;0.90;;
13197;SDS011;6664;52.514;13.440;2023-08-07T09:18:35;2.13;;;1.40;;
13197;SDS011;6664;52.514;13.440;2023-08-07T09:21:25;2.73;;;1.20;;
13197;SDS011;6664;52.514;13.440;2023-08-07T09:24:11;1.47;;;1.03;;
13197;SDS011;6664;52.514;13.440;2023-08-07T09:26:56;1.33;;;1.20;;
13197;SDS011;6664;52.514;13.440;2023-08-07T09:29:44;2.70;;;1.20;;
13197;SDS011;6664;52.514;13.440;2023-08-07T09:32:33;1.37;;;1.20;;
13197;SDS011;6664;52.514;13.440;2023-08-07T09:35:22;1.40;;;1.10;;
13197;SDS011;6664;52.514;13.440;2023-08-07T09:38:07;1.30;;;1.20;;
13197;SDS011;6664;52.514;13.440;2023-08-07T09:41:01;1.70;;;1.40;;
13197;SDS011;6664;52.514;13.440;2023-08-07T09:43:50;2.40;;;1.40;;
13197;SDS011;6664;52.514;13.440;2023-08-07T09:46:43;3.87;;;1.50;;
13197;SDS011;6664;52.514;13.440;2023-08-07T09:49:32;2.03;;;1.33;;
13197;SDS011;6664;52.514;13.440;2023-08-07T09:52:20;2.33;;;1.50;;
13197;SDS011;6664;52.514;13.440;2023-08-07T09:55:06;4.50;;;1.10;;
13197;SDS011;6664;52.514;13.440;2023-08-07T09:57:52;2.33;;;1.20;;
13197;SDS011;6664;52.514;13.440;2023-08-07T10:00:40;0.93;;;0.93;;
13197;SDS011;6664;52.514;13.440;2023-08-07T10:03:26;3.97;;;1.40;;
13197;SDS011;6664;52.514;13.440;2023-08-07T10:06:12;1.67;;;1.47;;
13197;SDS011;6664;52.514;13.440;2023-08-07T10:08:59;1.00;;;1.00;;
13197;SDS011;6664;52.514;13.440;2023-08-07T10:11:46;1.20;;;1.10;;
13197;SDS011;6664;52.514;13.440;2023-08-07T10:14:33;2.03;;;1.30;;
13197;SDS011;6664;52.514;13.440;2023-08-07T10:17:19;2.37;;;1.10;;
13197;SDS011;6664;52.514;13.440;2023-08-07T10:20:07;16.40;;;1.63;;
13197;SDS011;6664;52.514;13.440;2023-08-07T10:22:53;1.03;;;1.03;;
13197;SDS011;6664;52.514;13.440;2023-08-07T10:25:45;3.33;;;1.10;;
13197;SDS011;6664;52.514;13.440;2023-08-07T10:28:35;1.87;;;1.47;;
13197;SDS011;6664;52.514;13.440;2023-08-07T10:31:23;1.53;;;1.00;;
13197;SDS011;6664;52.514;13.440;2023-08-07T10:34:11;3.67;;;1.00;;
13197;SDS011;6664;52.514;13.440;2023-08-07T10:36:57;1.90;;;1.07;;
13197;SDS011;6664;52.514;13.440;2023-08-07T10:40:02;2.20;;;0.80;;
13197;SDS011;6664;52.514;13.440;2023-08-07T10:45:40;0.83;;;0.83;;
13197;SDS011;6664;52.514;13.440;2023-08-07T10:48:28;1.07;;;0.97;;
13197;SDS011;6664;52.514;13.440;2023-08-07T10:51:23;1.57;;;0.90;;
13197;SDS011;6664;52.514;13.440;2023-08-07T10:54:14;0.97;;;0.97;;
13197;SDS011;6664;52.514;13.440;2023-08-07T10:57:03;1.53;;;1.20;;
13197;SDS011;6664;52.514;13.440;2023-08-07T11:02:42;3.00;;;1.30;;
13197;SDS011;6664;52.514;13.440;2023-08-07T11:05:28;3.33;;;1.23;;
13197;SDS011;6664;52.514;13.440;2023-08-07T11:08:15;1.00;;;1.00;;
13197;SDS011;6664;52.514;13.440;2023-08-07T11:11:04;1.03;;;0.93;;
13197;SDS011;6664;52.514;13.440;2023-08-07T11:13:50;5.03;;;1.20;;
13197;SDS011;6664;52.514;13.440;2023-08-07T11:16:36;2.80;;;1.30;;
13197;SDS011;6664;52.514;13.440;2023-08-07T11:19:22;5.93;;;1.20;;
13197;SDS011;6664;52.514;13.440;2023-08-07T11:22:08;1.33;;;1.23;;
13197;SDS011;6664;52.514;13.440;2023-08-07T11:24:53;1.97;;;1.60;;
13197;SDS011;6664;52.514;13.440;2023-08-07T11:27:43;1.97;;;1.60;;
13197;SDS011;6664;52.514;13.440;2023-08-07T11:30:28;3.40;;;1.77;;
13197;SDS011;6664;52.514;13.440;2023-08-07T11:33:17;2.03;;;1.80;;
13197;SDS011;6664;52.514;13.440;2023-08-07T11:36:12;7.60;;;2.20;;
13197;SDS011;6664;52.514;13.440;2023-08-07T11:38:58;4.97;;;2.17;;
13197;SDS011;6664;52.514;13.440;2023-08-07T11:41:44;1.77;;;1.67;;
13197;SDS011;6664;52.514;13.440;2023-08-07T11:44:35;5.23;;;2.40;;
13197;SDS011;6664;52.514;13.440;2023-08-07T11:47:23;3.23;;;2.10;;
13197;SDS011;6664;52.514;13.440;2023-08-07T11:50:09;2.80;;;2.00;;
13197;SDS011;6664;52.514;13.440;2023-08-07T11:52:55;3.37;;;1.53;;
13197;SDS011;6664;52.514;13.440;2023-08-07T11:55:52;1.93;;;1.53;;
13197;SDS011;6664;52.514;13.440;2023-08-07T11:58:41;2.37;;;1.70;;
13197;SDS011;6664;52.514;13.440;2023-08-07T12:01:31;2.23;;;1.40;;
13197;SDS011;6664;52.514;13.440;2023-08-07T12:04:25;2.93;;;1.63;;
13197;SDS011;6664;52.514;13.440;2023-08-07T12:07:23;1.93;;;1.50;;
13197;SDS011;6664;52.514;13.440;2023-08-07T12:10:13;2.60;;;1.57;;
13197;SDS011;6664;52.514;13.440;2023-08-07T12:12:59;3.27;;;1.90;;
13197;SDS011;6664;52.514;13.440;2023-08-07T12:15:53;2.50;;;1.50;;
13197;SDS011;6664;52.514;13.440;2023-08-07T12:18:43;1.73;;;1.63;;
13197;SDS011;6664;52.514;13.440;2023-08-07T12:21:31;3.47;;;1.20;;
13197;SDS011;6664;52.514;13.440;2023-08-07T12:24:18;9.17;;;2.07;;
13197;SDS011;6664;52.514;13.440;2023-08-07T12:27:05;4.43;;;1.93;;
13197;SDS011;6664;52.514;13.440;2023-08-07T12:29:54;1.83;;;1.73;;
13197;SDS011;6664;52.514;13.440;2023-08-07T12:32:41;4.17;;;1.67;;
13197;SDS011;6664;52.514;13.440;2023-08-07T12:35:27;2.40;;;1.30;;
13197;SDS011;6664;52.514;13.440;2023-08-07T12:38:12;2.70;;;1.40;;
13197;SDS011;6664;52.514;13.440;2023-08-07T12:40:59;1.73;;;1.43;;
13197;SDS011;6664;52.514;13.440;2023-08-07T12:43:45;2.23;;;1.20;;
13197;SDS011;6664;52.514;13.440;2023-08-07T12:46:31;3.50;;;1.43;;
13197;SDS011;6664;52.514;13.440;2023-08-07T12:49:20;2.37;;;1.30;;
13197;SDS011;6664;52.514;13.440;2023-08-07T12:52:05;4.83;;;1.30;;
13197;SDS011;6664;52.514;13.440;2023-08-07T12:54:51;2.00;;;1.23;;
13197;SDS011;6664;52.514;13.440;2023-08-07T12:57:37;1.20;;;1.10;;
13197;SDS011;6664;52.514;13.440;2023-08-07T13:00:26;3.10;;;1.40;;
13197;SDS011;6664;52.514;13.440;2023-08-07T13:03:12;2.47;;;1.30;;
13197;SDS011;6664;52.514;13.440;2023-08-07T13:05:57;2.63;;;1.40;;
13197;SDS011;6664;52.514;13.440;2023-08-07T13:08:43;3.93;;;2.60;;
13197;SDS011;6664;52.514;13.440;2023-08-07T13:11:33;3.23;;;1.30;;
13197;SDS011;6664;52.514;13.440;2023-08-07T13:14:19;2.83;;;1.20;;
13197;SDS011;6664;52.514;13.440;2023-08-07T13:17:06;6.93;;;1.40;;
13197;SDS011;6664;52.514;13.440;2023-08-07T13:19:52;2.73;;;1.47;;
13197;SDS011;6664;52.514;13.440;2023-08-07T13:22:38;2.23;;;1.47;;
13197;SDS011;6664;52.514;13.440;2023-08-07T13:25:30;3.20;;;1.50;;
13197;SDS011;6664;52.514;13.440;2023-08-07T13:28:18;2.90;;;1.30;;
13197;SDS011;6664;52.514;13.440;2023-08-07T13:31:03;1.30;;;1.20;;
13197;SDS011;6664;52.514;13.440;2023-08-07T13:33:51;3.80;;;1.30;;
13197;SDS011;6664;52.514;13.440;2023-08-07T13:36:37;8.93;;;1.27;;
13197;SDS011;6664;52.514;13.440;2023-08-07T13:39:25;4.20;;;1.50;;
13197;SDS011;6664;52.514;13.440;2023-08-07T13:42:11;2.20;;;1.10;;
13197;SDS011;6664;52.514;13.440;2023-08-07T13:44:57;3.07;;;0.90;;
13197;SDS011;6664;52.514;13.440;2023-08-07T13:47:43;1.27;;;1.17;;
13197;SDS011;6664;52.514;13.440;2023-08-07T13:50:28;3.77;;;1.40;;
13197;SDS011;6664;52.514;13.440;2023-08-07T13:53:14;1.37;;;0.97;;
13197;SDS011;6664;52.514;13.440;2023-08-07T13:56:00;8.03;;;1.63;;
13197;SDS011;6664;52.514;13.440;2023-08-07T13:58:45;1.57;;;1.27;;
13197;SDS011;6664;52.514;13.440;2023-08-07T14:01:31;1.47;;;1.30;;
13197;SDS011;6664;52.514;13.440;2023-08-07T14:04:18;4.63;;;1.20;;
13197;SDS011;6664;52.514;13.440;2023-08-07T14:07:03;1.40;;;1.30;;
13197;SDS011;6664;52.514;13.440;2023-08-07T14:09:51;3.97;;;1.90;;
13197;SDS011;6664;52.514;13.440;2023-08-07T14:12:40;6.17;;;1.87;;
13197;SDS011;6664;52.514;13.440;2023-08-07T14:15:28;4.30;;;1.40;;
13197;SDS011;6664;52.514;13.440;2023-08-07T14:18:14;6.33;;;1.67;;
13197;SDS011;6664;52.514;13.440;2023-08-07T14:21:00;2.10;;;1.10;;
13197;SDS011;6664;52.514;13.440;2023-08-07T14:23:47;3.53;;;1.57;;
13197;SDS011;6664;52.514;13.440;2023-08-07T14:26:35;2.97;;;1.30;;
13197;SDS011;6664;52.514;13.440;2023-08-07T14:29:23;3.10;;;1.80;;
13197;SDS011;6664;52.514;13.440;2023-08-07T14:32:09;1.30;;;1.20;;
13197;SDS011;6664;52.514;13.440;2023-08-07T14:34:54;3.67;;;1.30;;
13197;SDS011;6664;52.514;13.440;2023-08-07T14:37:40;3.17;;;1.40;;
13197;SDS011;6664;52.514;13.440;2023-08-07T14:40:28;3.33;;;1.40;;
13197;SDS011;6664;52.514;13.440;2023-08-07T14:43:14;1.50;;;1.13;;
13197;SDS011;6664;52.514;13.440;2023-08-07T14:45:59;2.40;;;1.07;;
13197;SDS011;6664;52.514;13.440;2023-08-07T14:48:47;4.13;;;1.40;;
13197;SDS011;6664;52.514;13.440;2023-08-07T14:51:33;2.30;;;1.17;;
13197;SDS011;6664;52.514;13.440;2023-08-07T14:54:21;5.33;;;1.43;;
13197;SDS011;6664;52.514;13.440;2023-08-07T14:57:08;3.67;;;1.30;;
13197;SDS011;6664;52.514;13.440;2023-08-07T14:59:54;1.70;;;1.10;;
13197;SDS011;6664;52.514;13.440;2023-08-07T15:02:40;2.07;;;1.20;;
13197;SDS011;6664;52.514;13.440;2023-08-07T15:05:27;6.13;;;1.17;;
13197;SDS011;6664;52.514;13.440;2023-08-07T15:08:13;3.43;;;1.40;;
13197;SDS011;6664;52.514;13.440;2023-08-07T15:10:58;5.10;;;1.50;;
13197;SDS011;6664;52.514;13.440;2023-08-07T15:13:44;1.73;;;1.30;;
13197;SDS011;6664;52.514;13.440;2023-08-07T15:16:32;3.87;;;1.20;;
13197;SDS011;6664;52.514;13.440;2023-08-07T15:19:17;3.70;;;1.40;;
13197;SDS011;6664;52.514;13.440;2023-08-07T15:22:03;3.40;;;1.47;;
13197;SDS011;6664;52.514;13.440;2023-08-07T15:24:53;3.03;;;1.50;;
13197;SDS011;6664;52.514;13.440;2023-08-07T15:27:41;3.43;;;1.43;;
13197;SDS011;6664;52.514;13.440;2023-08-07T15:30:27;5.60;;;1.50;;
13197;SDS011;6664;52.514;13.440;2023-08-07T15:33:14;2.90;;;1.23;;
13197;SDS011;6664;52.514;13.440;2023-08-07T15:36:01;1.87;;;1.50;;
13197;SDS011;6664;52.514;13.440;2023-08-07T15:38:47;2.97;;;1.40;;
13197;SDS011;6664;52.514;13.440;2023-08-07T15:41:32;2.50;;;1.40;;
13197;SDS011;6664;52.514;13.440;2023-08-07T15:44:18;4.50;;;1.63;;
13197;SDS011;6664;52.514;13.440;2023-08-07T15:47:03;4.23;;;1.33;;
13197;SDS011;6664;52.514;13.440;2023-08-07T15:49:52;2.00;;;1.13;;
13197;SDS011;6664;52.514;13.440;2023-08-07T15:52:38;2.40;;;1.23;;
13197;SDS011;6664;52.514;13.440;2023-08-07T15:55:24;2.33;;;1.60;;
13197;SDS011;6664;52.514;13.440;2023-08-07T15:58:09;4.30;;;1.30;;
13197;SDS011;6664;52.514;13.440;2023-08-07T16:00:56;1.23;;;1.23;;
13197;SDS011;6664;52.514;13.440;2023-08-07T16:03:42;2.60;;;1.20;;
13197;SDS011;6664;52.514;13.440;2023-08-07T16:06:30;7.50;;;1.60;;
13197;SDS011;6664;52.514;13.440;2023-08-07T16:09:15;3.70;;;1.70;;
13197;SDS011;6664;52.514;13.440;2023-08-07T16:12:00;8.10;;;1.33;;
13197;SDS011;6664;52.514;13.440;2023-08-07T16:14:46;5.27;;;1.13;;
13197;SDS011;6664;52.514;13.440;2023-08-07T16:17:33;4.43;;;1.60;;
13197;SDS011;6664;52.514;13.440;2023-08-07T16:20:19;2.93;;;1.80;;
13197;SDS011;6664;52.514;13.440;2023-08-07T16:23:07;15.63;;;2.00;;
13197;SDS011;6664;52.514;13.440;2023-08-07T16:25:52;4.53;;;1.83;;
13197;SDS011;6664;52.514;13.440;2023-08-07T16:28:38;2.80;;;1.43;;
13197;SDS011;6664;52.514;13.440;2023-08-07T16:31:23;5.70;;;1.70;;
13197;SDS011;6664;52.514;13.440;2023-08-07T16:34:10;1.77;;;1.30;;
13197;SDS011;6664;52.514;13.440;2023-08-07T16:36:58;3.33;;;1.73;;
13197;SDS011;6664;52.514;13.440;2023-08-07T16:39:44;4.00;;;1.40;;
13197;SDS011;6664;52.514;13.440;2023-08-07T16:42:32;2.70;;;1.20;;
13197;SDS011;6664;52.514;13.440;2023-08-07T16:45:18;3.50;;;1.30;;
13197;SDS011;6664;52.514;13.440;2023-08-07T16:48:06;3.37;;;1.60;;
13197;SDS011;6664;52.514;13.440;2023-08-07T16:50:52;2.63;;;1.63;;
13197;SDS011;6664;52.514;13.440;2023-08-07T16:53:59;4.97;;;1.70;;
13197;SDS011;6664;52.514;13.440;2023-08-07T16:56:46;17.33;;;1.90;;